createdAt,value
2022-10-22T00:01:49.851Z,59.71
2022-10-22T00:04:57.260Z,59.87
2022-10-22T00:08:05.669Z,60.67
2022-10-22T00:11:13.631Z,60.55
2022-10-22T00:14:19.404Z,60.26
2022-10-22T00:17:25.322Z,60.47
2022-10-22T00:20:34.643Z,60.52
2022-10-22T00:23:44.139Z,60.42
2022-10-22T00:26:49.925Z,60.57
2022-10-22T00:29:55.740Z,60.86
2022-10-22T00:33:01.317Z,61.40
2022-10-22T00:36:07.630Z,62.25
2022-10-22T00:39:16.991Z,61.89
2022-10-22T00:42:29.642Z,61.66
2022-10-22T00:45:35.358Z,61.75
2022-10-22T00:48:41.112Z,61.79
2022-10-22T00:51:46.772Z,61.52
2022-10-22T00:54:55.956Z,62.14
2022-10-22T00:58:02.987Z,61.81
2022-10-22T01:01:15.844Z,62.50
2022-10-22T01:04:23.315Z,62.86
2022-10-22T01:07:29.854Z,62.44
2022-10-22T01:11:00.629Z,62.97
2022-10-22T01:14:23.259Z,62.62
2022-10-22T01:17:43.920Z,63.27
2022-10-22T01:21:18.311Z,63.78
2022-10-22T01:24:45.175Z,63.61
2022-10-22T01:28:14.387Z,63.67
2022-10-22T01:31:28.281Z,63.32
2022-10-22T01:34:37.438Z,63.30
2022-10-22T01:37:51.994Z,63.12
2022-10-22T01:40:59.593Z,62.92
2022-10-22T01:44:05.331Z,63.42
2022-10-22T01:47:26.025Z,62.71
2022-10-22T01:51:07.208Z,62.79
2022-10-22T01:54:36.302Z,62.37
2022-10-22T01:57:58.236Z,62.54
2022-10-22T02:01:18.410Z,63.20
2022-10-22T02:04:37.032Z,63.01
2022-10-22T02:07:50.195Z,62.96
2022-10-22T02:10:59.062Z,63.17
2022-10-22T02:14:16.715Z,63.17
2022-10-22T02:17:25.518Z,63.15
2022-10-22T02:20:38.854Z,63.36
2022-10-22T02:23:44.881Z,62.79
2022-10-22T02:27:06.288Z,63.35
2022-10-22T02:30:19.730Z,63.64
2022-10-22T02:33:35.111Z,63.42
2022-10-22T02:36:49.676Z,62.73
2022-10-22T02:39:59.109Z,63.02
2022-10-22T02:43:08.857Z,62.88
2022-10-22T02:46:15.673Z,62.80
2022-10-22T02:49:21.625Z,63.08
2022-10-22T02:52:30.031Z,63.46
2022-10-22T02:55:35.588Z,63.66
2022-10-22T02:58:41.180Z,63.17
2022-10-22T03:01:46.909Z,62.98
2022-10-22T03:04:52.979Z,63.39
2022-10-22T03:08:01.272Z,63.08
2022-10-22T03:11:06.931Z,63.29
2022-10-22T03:14:12.697Z,62.30
2022-10-22T03:17:18.351Z,62.27
2022-10-22T03:20:23.916Z,62.23
2022-10-22T03:23:32.317Z,61.92
2022-10-22T03:26:40.162Z,61.81
2022-10-22T03:29:47.321Z,61.39
2022-10-22T03:32:52.861Z,61.32
2022-10-22T03:35:58.783Z,61.38
2022-10-22T03:39:08.686Z,61.57
2022-10-22T03:42:14.788Z,61.86
2022-10-22T03:45:20.673Z,62.13
2022-10-22T03:48:26.520Z,62.35
2022-10-22T03:51:33.094Z,62.76
2022-10-22T03:54:42.758Z,62.41
2022-10-22T03:57:48.665Z,62.13
2022-10-22T04:00:54.473Z,62.84
2022-10-22T04:04:01.803Z,62.64
2022-10-22T04:07:11.789Z,62.26
2022-10-22T04:10:20.447Z,62.18
2022-10-22T04:13:26.239Z,62.15
2022-10-22T04:16:34.026Z,61.68
2022-10-22T04:19:39.881Z,61.65
2022-10-22T04:22:45.567Z,61.79
2022-10-22T04:25:53.821Z,61.73
2022-10-22T04:28:59.460Z,61.47
2022-10-22T04:32:05.202Z,61.62
2022-10-22T04:35:11.823Z,61.41
2022-10-22T04:38:19.343Z,61.79
2022-10-22T04:41:30.627Z,62.34
2022-10-22T04:44:36.506Z,62.61
2022-10-22T04:47:42.566Z,62.99
2022-10-22T04:50:50.071Z,63.58
2022-10-22T04:53:56.403Z,63.46
2022-10-22T04:57:04.843Z,63.67
2022-10-22T05:00:13.074Z,63.40
2022-10-22T05:03:18.616Z,64.17
2022-10-22T05:06:26.259Z,64.31
2022-10-22T05:09:45.986Z,64.99
2022-10-22T05:12:55.341Z,65.59
2022-10-22T05:16:05.247Z,65.62
2022-10-22T05:19:12.922Z,65.45
2022-10-22T05:22:18.856Z,65.66
2022-10-22T05:25:24.535Z,65.88
2022-10-22T05:28:32.782Z,65.67
2022-10-22T05:31:39.135Z,65.68
2022-10-22T05:34:44.686Z,64.72
2022-10-22T05:37:51.042Z,64.57
2022-10-22T05:41:04.559Z,64.69
2022-10-22T05:44:16.131Z,64.44
2022-10-22T05:47:21.707Z,64.89
2022-10-22T05:50:27.256Z,65.33
2022-10-22T05:53:32.969Z,65.42
2022-10-22T05:56:39.652Z,65.36
2022-10-22T05:59:47.834Z,64.99
2022-10-22T06:02:54.398Z,64.37
2022-10-22T06:06:00.124Z,64.03
2022-10-22T06:09:09.839Z,63.53
2022-10-22T06:12:15.507Z,63.42
2022-10-22T06:15:25.279Z,62.41
2022-10-22T06:18:36.839Z,62.06
2022-10-22T06:21:42.775Z,61.39
2022-10-22T06:24:48.337Z,61.12
2022-10-22T06:27:55.144Z,60.37
2022-10-22T06:31:07.326Z,60.00
2022-10-22T06:34:19.042Z,59.90
2022-10-22T06:37:24.717Z,59.75
2022-10-22T06:40:36.244Z,59.72
2022-10-22T06:43:42.617Z,59.87
2022-10-22T06:46:53.553Z,60.11
2022-10-22T06:49:59.073Z,60.00
2022-10-22T06:53:06.412Z,59.48
2022-10-22T06:56:16.084Z,59.96
2022-10-22T06:59:22.110Z,59.86
2022-10-22T07:02:49.025Z,60.89
2022-10-22T07:06:05.265Z,60.63
2022-10-22T07:09:22.806Z,60.24
2022-10-22T07:12:30.263Z,59.65
2022-10-22T07:15:36.151Z,58.95
2022-10-22T07:18:52.923Z,59.45
2022-10-22T07:22:01.043Z,59.37
2022-10-22T07:25:09.308Z,59.40
2022-10-22T07:28:15.333Z,59.25
2022-10-22T07:31:22.057Z,60.17
2022-10-22T07:34:30.451Z,60.47
2022-10-22T07:37:36.299Z,59.64
2022-10-22T07:40:41.969Z,58.88
2022-10-22T07:43:50.591Z,58.55
2022-10-22T07:46:59.195Z,58.38
2022-10-22T07:50:09.565Z,57.93
2022-10-22T07:53:15.121Z,57.60
2022-10-22T07:56:20.807Z,57.36
2022-10-22T07:59:26.575Z,57.34
2022-10-22T08:02:32.379Z,57.57
2022-10-22T08:05:40.825Z,57.02
2022-10-22T08:08:48.781Z,57.22
2022-10-22T08:11:54.935Z,57.33
2022-10-22T08:15:11.749Z,57.74
2022-10-22T08:18:17.565Z,58.09
2022-10-22T08:21:26.016Z,58.69
2022-10-22T08:24:32.123Z,58.97
2022-10-22T08:27:38.221Z,58.91
2022-10-22T08:30:46.555Z,59.76
2022-10-22T08:33:52.287Z,59.18
2022-10-22T08:37:00.886Z,59.81
2022-10-22T08:40:08.514Z,60.02
2022-10-22T08:43:54.918Z,60.34
2022-10-22T08:47:34.839Z,60.19
2022-10-22T08:50:49.196Z,59.73
2022-10-22T08:54:31.928Z,60.04
2022-10-22T08:58:00.821Z,60.20
2022-10-22T09:01:16.734Z,59.81
2022-10-22T09:04:31.608Z,59.58
2022-10-22T09:07:44.084Z,59.18
2022-10-22T09:11:01.477Z,58.89
2022-10-22T09:14:08.608Z,58.86
2022-10-22T09:17:24.543Z,58.46
2022-10-22T09:20:46.828Z,58.27
2022-10-22T09:24:07.686Z,59.03
2022-10-22T09:27:20.107Z,58.75
2022-10-22T09:30:29.880Z,58.76
2022-10-22T09:33:35.675Z,59.25
2022-10-22T09:36:41.449Z,59.43
2022-10-22T09:39:51.462Z,58.84
2022-10-22T09:42:59.651Z,59.45
2022-10-22T09:46:09.192Z,58.75
2022-10-22T09:49:20.642Z,58.50
2022-10-22T09:52:38.486Z,58.29
2022-10-22T09:55:46.432Z,58.28
2022-10-22T09:58:55.527Z,58.24
2022-10-22T10:02:20.041Z,57.78
2022-10-22T10:05:41.473Z,57.67
2022-10-22T10:08:47.271Z,57.31
2022-10-22T10:12:09.751Z,57.52
2022-10-22T10:15:34.173Z,57.54
2022-10-22T10:19:14.087Z,57.43
2022-10-22T10:22:45.085Z,58.16
2022-10-22T10:26:04.212Z,58.54
2022-10-22T10:29:30.744Z,59.08
2022-10-22T10:33:05.177Z,58.93
2022-10-22T10:36:25.859Z,59.08
2022-10-22T10:39:58.616Z,59.97
2022-10-22T10:43:14.013Z,60.99
2022-10-22T10:46:37.373Z,61.55
2022-10-22T10:49:49.259Z,62.61
2022-10-22T10:53:16.176Z,63.76
2022-10-22T10:56:42.673Z,64.80
2022-10-22T11:00:04.826Z,64.15
2022-10-22T11:04:03.229Z,64.11
2022-10-22T11:07:34.366Z,64.32
2022-10-22T11:10:48.300Z,64.61
2022-10-22T11:14:03.336Z,64.13
2022-10-22T11:17:20.001Z,64.42
2022-10-22T11:20:40.718Z,65.15
2022-10-22T11:23:58.823Z,64.86
2022-10-22T11:27:20.475Z,64.18
2022-10-22T11:30:31.582Z,64.63
2022-10-22T11:33:48.424Z,65.53
2022-10-22T11:36:58.544Z,64.98
2022-10-22T11:40:17.222Z,64.49
2022-10-22T11:43:36.076Z,64.21
2022-10-22T11:46:56.738Z,64.93
2022-10-22T11:50:22.974Z,64.59
2022-10-22T11:53:36.508Z,64.68
2022-10-22T11:56:46.260Z,64.20
2022-10-22T11:59:56.795Z,64.97
2022-10-22T12:03:07.799Z,65.29
2022-10-22T12:06:25.417Z,64.87
2022-10-22T12:09:35.315Z,64.96
2022-10-22T12:12:43.675Z,65.89
2022-10-22T12:15:56.378Z,65.53
2022-10-22T12:19:15.868Z,65.96
2022-10-22T12:22:27.027Z,65.08
2022-10-22T12:25:36.808Z,65.52
2022-10-22T12:28:45.624Z,65.27
2022-10-22T12:31:51.435Z,65.38
2022-10-22T12:34:57.063Z,64.87
2022-10-22T12:38:07.843Z,65.13
2022-10-22T12:41:13.784Z,65.25
2022-10-22T12:44:22.910Z,65.38
2022-10-22T12:47:28.677Z,66.20
2022-10-22T12:50:43.327Z,66.03
2022-10-22T12:53:54.384Z,65.53
2022-10-22T12:57:01.530Z,65.32
2022-10-22T13:00:26.595Z,64.89
2022-10-22T13:03:38.691Z,65.64
2022-10-22T13:06:49.357Z,65.13
2022-10-22T13:10:02.823Z,66.32
2022-10-22T13:13:09.274Z,66.96
2022-10-22T13:16:28.136Z,67.43
2022-10-22T13:19:43.600Z,68.60
2022-10-22T13:23:02.973Z,70.08
2022-10-22T13:26:20.006Z,70.08
2022-10-22T13:29:28.334Z,69.80
2022-10-22T13:32:37.621Z,70.53
2022-10-22T13:35:43.338Z,71.57
2022-10-22T13:38:49.688Z,72.95
2022-10-22T13:41:55.381Z,73.21
2022-10-22T13:45:00.994Z,73.32
2022-10-22T13:48:15.845Z,74.10
2022-10-22T13:51:26.358Z,74.51
2022-10-22T13:54:32.105Z,74.94
2022-10-22T13:57:37.710Z,75.57
2022-10-22T14:00:49.263Z,76.12
2022-10-22T14:04:03.104Z,77.29
2022-10-22T14:07:16.814Z,77.10
2022-10-22T14:10:26.344Z,76.84
2022-10-22T14:13:32.091Z,76.86
2022-10-22T14:16:40.531Z,76.55
2022-10-22T14:19:52.440Z,76.56
2022-10-22T14:23:05.184Z,77.36
2022-10-22T14:26:15.570Z,77.62
2022-10-22T14:29:21.162Z,76.96
2022-10-22T14:32:26.889Z,76.99
2022-10-22T14:35:35.107Z,77.50
2022-10-22T14:38:40.904Z,77.23
2022-10-22T14:41:46.926Z,76.67
2022-10-22T14:44:52.982Z,77.24
2022-10-22T14:47:58.880Z,76.37
2022-10-22T14:51:07.562Z,76.60
2022-10-22T14:54:13.292Z,76.32
2022-10-22T14:57:19.006Z,76.09
2022-10-22T15:00:25.578Z,76.57
2022-10-22T15:03:31.747Z,76.59
2022-10-22T15:06:40.166Z,76.50
2022-10-22T15:09:46.215Z,76.63
2022-10-22T15:12:51.754Z,76.73
2022-10-22T15:15:57.460Z,77.15
2022-10-22T15:19:03.058Z,77.00
2022-10-22T15:22:11.273Z,77.22
2022-10-22T15:25:18.001Z,77.17
2022-10-22T15:28:23.927Z,77.13
2022-10-22T15:31:51.407Z,77.05
2022-10-22T15:34:59.171Z,77.63
2022-10-22T15:38:09.443Z,78.41
2022-10-22T15:41:16.237Z,77.89
2022-10-22T15:44:25.377Z,77.64
2022-10-22T15:47:31.644Z,77.33
2022-10-22T15:50:41.878Z,77.89
2022-10-22T15:53:56.206Z,77.60
2022-10-22T15:57:08.733Z,77.28
2022-10-22T16:00:16.363Z,78.02
2022-10-22T16:03:22.095Z,78.29
2022-10-22T16:06:27.734Z,79.14
2022-10-22T16:09:44.980Z,79.05
2022-10-22T16:12:51.883Z,78.40
2022-10-22T16:15:57.849Z,78.25
2022-10-22T16:19:04.192Z,78.18
2022-10-22T16:22:11.647Z,78.55
2022-10-22T16:25:20.069Z,78.50
2022-10-22T16:28:28.157Z,78.32
2022-10-22T16:31:34.013Z,78.14
2022-10-22T16:34:39.684Z,77.51
2022-10-22T16:37:50.096Z,78.02
2022-10-22T16:41:16.552Z,79.10
2022-10-22T16:44:22.396Z,78.78
2022-10-22T16:47:28.155Z,78.91
2022-10-22T16:50:36.338Z,78.85
2022-10-22T16:53:42.022Z,79.47
2022-10-22T16:56:50.414Z,79.29
2022-10-22T16:59:56.130Z,78.99
2022-10-22T17:03:02.168Z,79.32
2022-10-22T17:06:12.748Z,79.44
2022-10-22T17:13:18.350Z,79.42
2022-10-22T17:16:27.113Z,79.81
2022-10-22T17:19:34.450Z,79.91
2022-10-22T17:22:40.739Z,79.67
2022-10-22T17:25:53.019Z,80.01
2022-10-22T17:29:02.118Z,80.04
2022-10-22T17:32:10.084Z,79.75
2022-10-22T17:35:20.108Z,79.52
2022-10-22T17:38:26.088Z,79.69
2022-10-22T17:41:36.243Z,79.36
2022-10-22T17:44:44.715Z,78.93
2022-10-22T17:47:52.194Z,78.08
2022-10-22T17:50:59.301Z,78.23
2022-10-22T17:54:07.487Z,78.51
2022-10-22T17:57:16.602Z,78.75
2022-10-22T18:00:25.154Z,79.13
2022-10-22T18:03:31.012Z,79.02
2022-10-22T18:06:38.388Z,79.28
2022-10-22T18:09:45.557Z,79.15
2022-10-22T18:12:51.368Z,78.85
2022-10-22T18:16:02.715Z,79.36
2022-10-22T18:19:08.418Z,78.91
2022-10-22T18:22:14.199Z,79.49
2022-10-22T18:25:20.116Z,78.64
2022-10-22T18:28:25.961Z,79.00
2022-10-22T18:31:34.305Z,79.36
2022-10-22T18:34:40.172Z,79.10
2022-10-22T18:37:46.022Z,79.56
2022-10-22T18:40:53.349Z,79.43
2022-10-22T18:44:02.590Z,79.41
2022-10-22T18:47:13.138Z,79.22
2022-10-22T18:50:19.386Z,79.78
2022-10-22T18:53:25.219Z,79.72
2022-10-22T18:56:41.208Z,79.26
2022-10-22T18:59:46.829Z,79.14
2022-10-22T19:02:55.208Z,79.06
2022-10-22T19:06:01.101Z,79.20
2022-10-22T19:09:09.485Z,78.79
2022-10-22T19:12:16.053Z,78.88
2022-10-22T19:15:21.822Z,78.93
2022-10-22T19:18:36.194Z,78.53
2022-10-22T19:21:41.780Z,78.15
2022-10-22T19:24:48.152Z,77.88
2022-10-22T19:27:59.583Z,77.76
2022-10-22T19:31:08.048Z,77.50
2022-10-22T19:34:17.305Z,77.61
2022-10-22T19:37:23.089Z,77.83
2022-10-22T19:40:28.967Z,77.78
2022-10-22T19:43:34.756Z,77.49
2022-10-22T19:46:40.734Z,77.29
2022-10-22T19:49:49.103Z,77.32
2022-10-22T19:52:54.707Z,77.43
2022-10-22T19:56:01.166Z,77.14
2022-10-22T19:59:09.194Z,77.27
2022-10-22T20:02:22.550Z,77.40
2022-10-22T20:05:30.904Z,76.79
2022-10-22T20:08:38.273Z,76.62
2022-10-22T20:11:44.232Z,77.01
2022-10-22T20:14:49.938Z,77.16
2022-10-22T20:17:55.871Z,77.56
2022-10-22T20:21:15.194Z,78.54
2022-10-22T20:24:20.862Z,78.80
2022-10-22T20:27:26.588Z,79.67
2022-10-22T20:30:32.207Z,79.62
2022-10-22T20:33:39.245Z,79.65
2022-10-22T20:36:48.063Z,79.26
2022-10-22T20:39:59.205Z,78.23
2022-10-22T20:43:08.563Z,77.70
2022-10-22T20:46:29.340Z,77.54
2022-10-22T20:49:40.070Z,78.49
2022-10-22T20:52:48.308Z,78.22
2022-10-22T20:55:59.768Z,78.16
2022-10-22T20:59:08.542Z,77.63
2022-10-22T21:02:17.344Z,78.02
2022-10-22T21:05:22.974Z,78.56
2022-10-22T21:08:31.194Z,78.38
2022-10-22T21:11:42.061Z,78.13
2022-10-22T21:14:49.200Z,77.49
2022-10-22T21:17:54.770Z,77.98
2022-10-22T21:21:00.332Z,78.18
2022-10-22T21:24:09.127Z,78.28
2022-10-22T21:27:14.718Z,77.91
2022-10-22T21:30:20.519Z,77.21
2022-10-22T21:33:29.206Z,77.31
2022-10-22T21:36:34.877Z,78.38
2022-10-22T21:39:43.122Z,77.68
2022-10-22T21:42:48.722Z,76.95
2022-10-22T21:45:54.377Z,78.59
2022-10-22T21:49:08.523Z,78.63
2022-10-22T21:52:16.558Z,78.27
2022-10-22T21:55:24.851Z,78.97
2022-10-22T21:58:30.488Z,77.92
2022-10-22T22:01:43.102Z,78.55
2022-10-22T22:04:51.509Z,79.09
2022-10-22T22:07:57.135Z,79.37
2022-10-22T22:11:11.778Z,79.49
2022-10-22T22:14:17.642Z,79.18
2022-10-22T22:17:23.239Z,79.04
2022-10-22T22:20:29.091Z,78.52
2022-10-22T22:23:35.398Z,79.09
2022-10-22T22:26:44.010Z,78.94
2022-10-22T22:29:49.716Z,78.24
2022-10-22T22:32:55.329Z,77.93
2022-10-22T22:36:04.007Z,78.01
2022-10-22T22:39:15.405Z,77.79
2022-10-22T22:42:23.774Z,78.53
2022-10-22T22:45:29.332Z,78.31
2022-10-22T22:48:39.137Z,78.99
2022-10-22T22:51:45.151Z,79.35
2022-10-22T22:54:51.102Z,79.37
2022-10-22T22:57:59.361Z,79.12
2022-10-22T23:01:18.394Z,79.49
2022-10-22T23:04:26.506Z,79.14
2022-10-22T23:07:32.076Z,78.88
2022-10-22T23:10:37.698Z,78.07
2022-10-22T23:13:46.869Z,77.96
2022-10-22T23:16:56.124Z,77.85
2022-10-22T23:20:01.801Z,77.79
2022-10-22T23:23:08.618Z,77.48
2022-10-22T23:26:15.767Z,77.31
2022-10-22T23:29:27.042Z,77.25
2022-10-22T23:32:32.785Z,76.65
2022-10-22T23:35:41.482Z,76.65
2022-10-22T23:38:47.414Z,76.83
2022-10-22T23:41:53.655Z,77.01
2022-10-22T23:45:01.847Z,76.52
2022-10-22T23:48:07.976Z,76.69
2022-10-22T23:51:17.632Z,75.91
2022-10-22T23:54:23.252Z,76.51
2022-10-22T23:57:28.998Z,76.28
